Time;durP1;ratioP1;P1;durP2;ratioP2;P2;SDS_P1;SDS_P2;PMS_P1;PMS_P2;Temp;Humidity;BMP_temperature;BMP_pressure;BME280_temperature;BME280_humidity;BME280_pressure;Samples;Min_cycle;Max_cycle;Signal;HPM_P1;HPM_P2
2022/01/19 00:01:52;;;;;;;29.37;10.30;;;;;;;3.45;100.00;102516.22;7401640;19;20709;-47
2022/01/19 00:04:22;;;;;;;30.43;12.07;;;;;;;3.46;100.00;102517.09;7406140;19;20405;-45
2022/01/19 00:06:52;;;;;;;26.37;12.70;;;;;;;3.47;100.00;102507.03;7397355;19;20444;-44
2022/01/19 00:09:23;;;;;;;36.27;11.20;;;;;;;3.46;100.00;102501.78;7406319;19;20676;-46
2022/01/19 00:11:53;;;;;;;25.43;10.87;;;;;;;3.44;100.00;102503.28;7400269;19;20519;-47
2022/01/19 00:14:25;;;;;;;32.73;13.07;;;;;;;3.43;100.00;102504.03;7405821;19;20391;-46
2022/01/19 00:16:54;;;;;;;32.33;11.50;;;;;;;3.38;100.00;102514.69;7399015;19;20447;-45
2022/01/19 00:19:24;;;;;;;30.47;14.20;;;;;;;3.33;100.00;102508.22;7406014;19;20392;-48
2022/01/19 00:21:53;;;;;;;33.87;13.80;;;;;;;3.27;100.00;102516.94;7401722;19;20896;-44
2022/01/19 00:24:23;;;;;;;29.80;8.77;;;;;;;3.21;100.00;102520.66;7405461;19;20395;-45
2022/01/19 00:26:52;;;;;;;27.43;12.23;;;;;;;3.22;100.00;102516.44;7398218;19;20499;-46
2022/01/19 00:29:24;;;;;;;34.80;13.37;;;;;;;3.23;100.00;102510.63;7405505;19;20419;-47
2022/01/19 00:31:54;;;;;;;35.63;12.97;;;;;;;3.23;100.00;102508.06;7401057;19;20422;-47
2022/01/19 00:34:23;;;;;;;23.10;10.40;;;;;;;3.20;100.00;102507.75;7405362;19;20400;-46
2022/01/19 00:36:53;;;;;;;17.80;7.80;;;;;;;3.07;100.00;102501.41;7396325;19;20439;-45
2022/01/19 00:39:23;;;;;;;13.73;5.30;;;;;;;3.04;100.00;102484.91;7405269;19;20400;-49
2022/01/19 00:41:53;;;;;;;17.80;6.87;;;;;;;3.05;100.00;102486.72;7399556;19;20523;-45
2022/01/19 00:44:25;;;;;;;26.70;11.27;;;;;;;3.06;100.00;102481.78;7404984;19;20459;-47
2022/01/19 00:46:55;;;;;;;22.77;11.17;;;;;;;3.10;100.00;102491.53;7398016;19;20467;-45
2022/01/19 00:49:24;;;;;;;23.37;10.93;;;;;;;3.09;100.00;102484.59;7405673;19;20480;-46
2022/01/19 00:51:54;;;;;;;27.33;11.50;;;;;;;3.11;100.00;102487.31;7400227;19;20439;-47
2022/01/19 00:54:24;;;;;;;23.00;9.13;;;;;;;3.10;100.00;102476.25;7404671;19;20467;-47
2022/01/19 00:56:53;;;;;;;18.80;8.73;;;;;;;3.05;100.00;102477.41;7396921;19;20900;-45
2022/01/19 00:59:25;;;;;;;27.80;12.80;;;;;;;3.33;100.00;102471.63;7404429;19;20466;-46
2022/01/19 01:01:55;;;;;;;24.57;10.73;;;;;;;3.16;100.00;102464.81;7400324;19;20436;-46
2022/01/19 01:04:25;;;;;;;17.77;8.07;;;;;;;3.02;100.00;102466.91;7401930;19;20397;-47
2022/01/19 01:06:55;;;;;;;19.10;8.53;;;;;;;2.96;100.00;102473.94;7395244;19;20816;-45
2022/01/19 01:09:24;;;;;;;23.03;8.80;;;;;;;2.96;100.00;102463.72;7395410;19;20400;-47
2022/01/19 01:12:02;;;;;;;33.03;13.03;;;;;;;3.00;100.00;102452.19;7388458;19;20415;-45
2022/01/19 01:18:17;;;;;;;32.27;12.77;;;;;;;2.89;100.00;102452.03;7394585;19;20403;-49
2022/01/19 01:20:08;;;;;;;32.87;12.63;;;;;;;2.91;100.00;102432.69;7389429;19;20399;-46
2022/01/19 01:22:39;;;;;;;27.07;11.67;;;;;;;2.92;100.00;102431.03;7394889;19;20477;-46
2022/01/19 01:25:10;;;;;;;29.77;13.30;;;;;;;2.95;100.00;102424.59;7387937;19;20435;-49
2022/01/19 01:27:40;;;;;;;33.43;13.37;;;;;;;2.93;100.00;102420.97;7394623;19;20397;-46
2022/01/19 01:30:13;;;;;;;27.60;12.07;;;;;;;2.97;100.00;102417.06;7388730;19;20424;-45
2022/01/19 01:32:42;;;;;;;28.23;11.00;;;;;;;2.92;100.00;102408.09;7395811;19;20725;-48
2022/01/19 01:35:12;;;;;;;27.20;12.87;;;;;;;2.88;100.00;102400.88;7393476;19;20443;-45
2022/01/19 01:37:42;;;;;;;37.93;11.57;;;;;;;2.89;100.00;102387.38;7396723;19;20425;-44
2022/01/19 01:40:13;;;;;;;24.43;7.47;;;;;;;2.80;100.00;102383.19;7392565;19;20407;-46
2022/01/19 01:42:44;;;;;;;26.67;12.37;;;;;;;2.88;100.00;102385.59;7397055;19;20380;-46
2022/01/19 01:45:18;;;;;;;27.93;12.30;;;;;;;2.86;100.00;102376.88;7390521;19;20506;-47
2022/01/19 01:47:52;;;;;;;30.83;12.50;;;;;;;2.90;100.00;102361.13;7398386;19;20386;-45
2022/01/19 01:53:26;;;;;;;30.93;13.37;;;;;;;2.97;100.00;102343.13;7396689;19;20376;-45
2022/01/19 01:55:58;;;;;;;40.57;15.40;;;;;;;2.87;100.00;102314.94;7390866;19;20429;-46
2022/01/19 01:58:28;;;;;;;40.23;18.10;;;;;;;2.86;100.00;102305.50;7397106;19;20398;-45
2022/01/19 02:01:01;;;;;;;35.17;14.73;;;;;;;2.82;100.00;102314.50;7392481;19;20428;-46
2022/01/19 02:03:37;;;;;;;35.23;15.43;;;;;;;2.87;100.00;102297.97;7396932;19;20660;-49
2022/01/19 02:06:31;;;;;;;31.67;13.50;;;;;;;2.76;100.00;102299.47;7392557;19;20450;-45
2022/01/19 02:09:07;;;;;;;47.40;19.83;;;;;;;2.88;100.00;102309.09;7397030;19;20380;-50
2022/01/19 02:23:13;;;;;;;42.20;17.00;;;;;;;2.76;100.00;102256.16;7406009;19;20447;-46
2022/01/19 02:25:44;;;;;;;34.40;12.83;;;;;;;2.70;100.00;102247.91;7399645;19;20477;-48
2022/01/19 02:31:33;;;;;;;40.63;16.57;;;;;;;2.65;100.00;102238.91;7402030;19;20410;-47
2022/01/19 02:40:09;;;;;;;46.80;20.20;;;;;;;2.59;100.00;102223.00;7398944;19;20478;-46
2022/01/19 02:42:29;;;;;;;56.93;19.80;;;;;;;2.55;100.00;102187.06;7405706;19;20138;-47
2022/01/19 02:50:41;;;;;;;60.20;23.53;;;;;;;2.67;100.00;102163.50;7394479;19;20435;-45
2022/01/19 02:53:13;;;;;;;57.80;19.20;;;;;;;2.56;100.00;102158.25;7404246;19;20392;-44
2022/01/19 02:55:42;;;;;;;63.20;23.03;;;;;;;2.48;100.00;102156.63;7400031;19;20445;-47
2022/01/19 02:58:12;;;;;;;53.77;19.87;;;;;;;2.45;100.00;102151.22;7405211;19;20456;-49
2022/01/19 03:08:42;;;;;;;60.80;20.27;;;;;;;2.40;100.00;102147.31;7397274;19;20439;-46
2022/01/19 03:09:09;;;;;;;37.13;14.00;;;;;;;2.32;100.00;102145.69;7404605;19;20393;-44
2022/01/19 03:11:39;;;;;;;45.20;17.87;;;;;;;2.33;100.00;102133.09;7401202;19;20737;-44
2022/01/19 03:14:09;;;;;;;46.37;17.90;;;;;;;2.33;100.00;102132.19;7403258;19;20468;-44
2022/01/19 03:16:39;;;;;;;35.90;13.95;;;;;;;2.31;100.00;102119.34;7395701;19;20495;-47
2022/01/19 03:19:10;;;;;;;60.13;22.80;;;;;;;2.41;100.00;102105.84;7404322;19;20119;-47
2022/01/19 03:21:40;;;;;;;47.37;14.50;;;;;;;2.36;100.00;102104.50;7400029;19;20914;-46
2022/01/19 03:24:13;;;;;;;34.00;11.53;;;;;;;2.32;100.00;102103.28;7404523;19;20387;-49
2022/01/19 03:26:42;;;;;;;39.97;13.73;;;;;;;2.34;100.00;102109.44;7395726;19;20508;-44
2022/01/19 03:29:12;;;;;;;53.73;16.90;;;;;;;2.39;100.00;102109.88;7404185;19;20384;-50
2022/01/19 03:31:41;;;;;;;49.67;18.70;;;;;;;2.41;100.00;102110.94;7395404;19;20477;-49
2022/01/19 03:34:12;;;;;;;47.17;17.53;;;;;;;2.40;100.00;102114.19;7406225;19;20403;-50
2022/01/19 03:36:41;;;;;;;39.97;15.17;;;;;;;2.34;100.00;102103.41;7397948;19;20444;-49
2022/01/19 03:39:13;;;;;;;41.10;14.80;;;;;;;2.37;100.00;102108.81;7404019;19;20398;-50
2022/01/19 03:41:43;;;;;;;46.17;16.30;;;;;;;2.49;100.00;102094.72;7400641;19;20409;-50
2022/01/19 03:44:12;;;;;;;25.13;11.17;;;;;;;2.34;100.00;102078.84;7403676;19;20443;-51
2022/01/19 03:46:54;;;;;;;44.00;14.60;;;;;;;2.38;100.00;102070.78;7397400;19;20491;-49
2022/01/19 03:49:24;;;;;;;42.60;13.23;;;;;;;2.34;100.00;102080.50;7404250;19;20399;-46
2022/01/19 03:51:58;;;;;;;45.33;15.57;;;;;;;2.34;100.00;102083.94;7399490;19;20434;-50
2022/01/19 03:54:31;;;;;;;42.17;15.23;;;;;;;2.38;100.00;102069.84;7402187;19;20119;-46
2022/01/19 03:57:01;;;;;;;33.43;11.20;;;;;;;2.36;100.00;102058.63;7398090;19;20915;-45
2022/01/19 03:59:30;;;;;;;35.07;14.30;;;;;;;2.38;100.00;102052.94;7407340;19;20408;-51
2022/01/19 04:02:01;;;;;;;44.70;15.20;;;;;;;2.43;100.00;102053.38;7399848;19;20868;-47
2022/01/19 04:04:37;;;;;;;43.00;16.40;;;;;;;2.40;100.00;102042.88;7402656;19;20661;-50
2022/01/19 04:07:27;;;;;;;40.33;14.33;;;;;;;2.34;100.00;102032.09;7403121;19;20407;-48
2022/01/19 04:09:59;;;;;;;39.33;12.30;;;;;;;2.31;100.00;102034.34;7400040;19;20456;-48
2022/01/19 04:12:43;;;;;;;37.47;14.00;;;;;;;2.29;100.00;102024.00;7403306;19;20451;-47
2022/01/19 04:15:13;;;;;;;48.80;17.33;;;;;;;2.39;100.00;102020.69;7397205;19;20505;-49
2022/01/19 04:17:49;;;;;;;45.87;18.20;;;;;;;2.41;100.00;102006.47;7402500;19;20459;-48
2022/01/19 04:20:18;;;;;;;35.73;10.63;;;;;;;2.32;100.00;102003.03;7395078;19;20407;-51
2022/01/19 04:22:48;;;;;;;46.10;16.30;;;;;;;2.29;100.00;102014.75;7402167;19;20386;-53
2022/01/19 04:25:20;;;;;;;37.87;13.50;;;;;;;2.30;100.00;102002.88;7397861;19;20194;-47
2022/01/19 04:27:50;;;;;;;34.87;14.00;;;;;;;2.31;100.00;101997.06;7402241;19;20400;-47
2022/01/19 04:30:21;;;;;;;38.20;14.87;;;;;;;2.32;100.00;101991.22;7398615;19;20470;-45
2022/01/19 04:33:03;;;;;;;44.33;14.20;;;;;;;2.23;100.00;101988.69;7401884;19;20387;-45
2022/01/19 04:35:43;;;;;;;31.93;11.00;;;;;;;2.24;100.00;101994.66;7395550;19;20418;-48
2022/01/19 04:54:46;;;;;;;40.97;13.63;;;;;;;2.16;100.00;101973.56;7402246;19;20151;-47
2022/01/19 05:03:04;;;;;;;43.50;14.50;;;;;;;2.17;100.00;101965.19;7400870;19;20195;-47
2022/01/19 05:05:43;;;;;;;52.10;15.93;;;;;;;2.25;100.00;101956.59;7396265;19;20397;-46
2022/01/19 05:08:20;;;;;;;43.80;13.23;;;;;;;2.23;100.00;101947.94;7400958;19;20451;-47
2022/01/19 05:13:37;;;;;;;37.47;13.25;;;;;;;2.19;100.00;101938.19;7400859;19;20388;-47
2022/01/19 05:16:07;;;;;;;33.50;13.67;;;;;;;2.17;100.00;101937.16;7394860;19;20249;-51
2022/01/19 05:18:37;;;;;;;33.97;13.13;;;;;;;2.22;100.00;101929.94;7400482;19;20379;-49
2022/01/19 05:21:06;;;;;;;32.37;11.60;;;;;;;2.16;100.00;101930.28;7397046;19;20422;-44
2022/01/19 05:23:36;;;;;;;14.43;5.93;;;;;;;2.04;100.00;101924.91;7401630;19;20388;-47
2022/01/19 05:26:05;;;;;;;30.30;12.07;;;;;;;2.08;100.00;101921.91;7394938;19;20445;-46
2022/01/19 05:28:38;;;;;;;28.67;9.03;;;;;;;2.05;100.00;101921.59;7400019;19;20513;-49
2022/01/19 05:31:08;;;;;;;15.00;6.50;;;;;;;2.04;100.00;101919.81;7396832;19;20491;-48
2022/01/19 05:33:38;;;;;;;33.47;12.47;;;;;;;2.00;100.00;101913.53;7400059;19;20399;-46
2022/01/19 05:36:07;;;;;;;30.77;10.10;;;;;;;2.04;100.00;101896.91;7394045;19;20487;-43
2022/01/19 05:38:37;;;;;;;33.10;12.70;;;;;;;2.06;100.00;101894.50;7399757;19;20397;-44
2022/01/19 05:41:07;;;;;;;34.10;7.83;;;;;;;2.05;100.00;101895.25;7393922;19;20491;-46
2022/01/19 05:43:39;;;;;;;35.65;10.88;;;;;;;2.06;100.00;101876.69;7399360;19;20844;-46
2022/01/19 05:46:08;;;;;;;24.03;9.73;;;;;;;2.11;100.00;101867.84;7394627;19;20211;-45
2022/01/19 05:48:38;;;;;;;31.70;12.87;;;;;;;2.09;100.00;101861.69;7398319;19;20400;-50
2022/01/19 05:51:08;;;;;;;31.53;13.67;;;;;;;2.05;100.00;101864.72;7392313;19;20711;-47
2022/01/19 05:53:38;;;;;;;38.78;11.38;;;;;;;2.14;100.00;101861.38;7399460;19;20384;-51
2022/01/19 05:56:08;;;;;;;31.90;12.47;;;;;;;2.13;100.00;101856.13;7391376;19;20186;-45
2022/01/19 05:58:40;;;;;;;43.47;15.10;;;;;;;2.18;100.00;101841.28;7402265;19;20906;-48
2022/01/19 06:01:10;;;;;;;47.28;15.70;;;;;;;2.25;100.00;101839.44;7395859;19;20918;-44
2022/01/19 06:03:40;;;;;;;33.60;10.30;;;;;;;2.10;100.00;101838.91;7399128;19;20124;-44
2022/01/19 06:06:09;;;;;;;23.95;8.30;;;;;;;2.10;100.00;101848.22;7394326;19;20441;-44
2022/01/19 06:08:44;;;;;;;24.30;11.27;;;;;;;2.08;100.00;101844.63;7399035;19;20119;-45
2022/01/19 06:11:16;;;;;;;36.50;12.23;;;;;;;2.10;100.00;101838.91;7393967;19;20416;-46
2022/01/19 06:13:48;;;;;;;33.47;11.73;;;;;;;2.08;100.00;101825.16;7398881;19;20183;-46
2022/01/19 06:16:17;;;;;;;38.53;12.40;;;;;;;2.09;100.00;101831.13;7393764;19;20484;-47
2022/01/19 06:18:47;;;;;;;32.00;9.70;;;;;;;2.03;100.00;101821.28;7398378;19;20406;-46
2022/01/19 06:21:16;;;;;;;28.53;10.87;;;;;;;2.06;100.00;101825.75;7393704;19;20190;-46
2022/01/19 06:23:46;;;;;;;26.83;9.20;;;;;;;2.07;100.00;101823.38;7398488;19;20911;-46
2022/01/19 06:26:15;;;;;;;26.00;11.07;;;;;;;2.09;100.00;101820.94;7393589;19;20423;-45
2022/01/19 06:28:48;;;;;;;35.83;13.83;;;;;;;2.12;100.00;101811.06;7398376;19;20459;-47
2022/01/19 06:31:17;;;;;;;40.05;13.55;;;;;;;2.14;100.00;101818.09;7394685;19;20400;-49
2022/01/19 06:33:47;;;;;;;44.57;10.10;;;;;;;2.15;100.00;101817.31;7398280;19;20424;-48
2022/01/19 06:36:16;;;;;;;45.20;16.43;;;;;;;2.20;100.00;101810.09;7391152;19;20509;-50
2022/01/19 06:38:46;;;;;;;36.27;13.80;;;;;;;2.18;100.00;101810.72;7398091;19;20679;-45
2022/01/19 06:41:15;;;;;;;55.00;15.70;;;;;;;2.22;100.00;101795.88;7394430;19;20495;-48
2022/01/19 06:43:47;;;;;;;51.43;17.30;;;;;;;2.25;100.00;101802.91;7398174;19;20403;-50
2022/01/19 06:46:17;;;;;;;55.83;17.80;;;;;;;2.31;100.00;101803.47;7389386;19;20502;-47
2022/01/19 06:48:47;;;;;;;62.10;19.10;;;;;;;2.32;100.00;101797.63;7397411;19;20392;-50
2022/01/19 06:51:16;;;;;;;45.60;14.80;;;;;;;2.33;100.00;101795.94;7392690;19;20563;-50
2022/01/19 06:53:46;;;;;;;67.10;20.80;;;;;;;2.39;100.00;101801.63;7397647;19;20452;-46
2022/01/19 06:56:16;;;;;;;47.40;17.30;;;;;;;2.41;100.00;101800.13;7391861;19;20455;-46
2022/01/19 06:58:48;;;;;;;59.63;18.60;;;;;;;2.45;100.00;101794.53;7397236;19;20459;-48
2022/01/19 07:01:17;;;;;;;61.67;22.27;;;;;;;2.50;100.00;101792.41;7398643;19;20677;-47
2022/01/19 07:03:47;;;;;;;60.70;19.70;;;;;;;2.54;100.00;101781.75;7406226;19;20400;-45
2022/01/19 07:06:17;;;;;;;45.73;18.20;;;;;;;2.56;100.00;101773.47;7397716;19;20771;-47
2022/01/19 07:08:46;;;;;;;62.67;20.10;;;;;;;2.56;100.00;101770.94;7404591;19;20387;-48
2022/01/19 07:11:16;;;;;;;66.03;17.10;;;;;;;2.56;100.00;101768.38;7401064;19;20483;-48
2022/01/19 07:13:48;;;;;;;53.90;17.20;;;;;;;2.60;100.00;101755.94;7404503;19;20383;-52
2022/01/19 07:16:18;;;;;;;55.60;20.10;;;;;;;2.64;100.00;101742.69;7398269;19;20491;-51
2022/01/19 07:18:47;;;;;;;55.67;20.30;;;;;;;2.61;100.00;101745.84;7405331;19;20396;-52
2022/01/19 07:21:17;;;;;;;72.23;24.93;;;;;;;2.67;100.00;101742.97;7395354;19;20767;-46
2022/01/19 07:23:46;;;;;;;64.83;19.90;;;;;;;2.67;100.00;101740.44;7407697;19;20518;-47
2022/01/19 07:26:21;;;;;;;55.57;15.83;;;;;;;2.67;100.00;101732.78;7402344;19;20469;-47
2022/01/19 07:28:53;;;;;;;46.27;17.50;;;;;;;2.68;100.00;101740.53;7407729;19;20682;-46
2022/01/19 07:31:22;;;;;;;57.23;15.07;;;;;;;2.66;100.00;101736.09;7400555;19;20490;-49
2022/01/19 07:33:52;;;;;;;39.67;15.47;;;;;;;2.66;100.00;101726.78;7403912;19;20388;-49
2022/01/19 07:36:21;;;;;;;57.70;17.10;;;;;;;2.67;100.00;101720.91;7398285;19;20435;-48
2022/01/19 07:38:51;;;;;;;58.10;20.30;;;;;;;2.72;100.00;101721.31;7403839;19;20463;-47
2022/01/19 07:41:21;;;;;;;54.50;20.37;;;;;;;2.74;100.00;101708.72;7397642;19;20463;-45
2022/01/19 07:43:53;;;;;;;83.53;21.30;;;;;;;2.75;100.00;101705.41;7403074;19;20730;-48
2022/01/19 07:46:22;;;;;;;49.63;17.53;;;;;;;2.80;100.00;101699.97;7397829;19;20437;-45
2022/01/19 07:48:52;;;;;;;49.23;18.40;;;;;;;2.76;100.00;101697.91;7402992;19;20401;-46
2022/01/19 07:51:21;;;;;;;46.67;18.87;;;;;;;2.73;100.00;101695.09;7402513;19;20943;-47
2022/01/19 07:53:51;;;;;;;52.57;18.70;;;;;;;2.71;100.00;101699.16;7402535;19;20707;-46
2022/01/19 07:56:21;;;;;;;61.33;23.43;;;;;;;2.76;100.00;101686.84;7393706;19;20479;-50
2022/01/19 07:58:53;;;;;;;50.67;19.20;;;;;;;2.74;100.00;101689.25;7402818;19;20388;-48
2022/01/19 08:01:22;;;;;;;67.57;18.53;;;;;;;2.75;100.00;101679.91;7399908;19;20449;-45
2022/01/19 08:03:52;;;;;;;50.47;17.10;;;;;;;2.68;100.00;101673.41;7407367;19;20395;-47
2022/01/19 08:06:22;;;;;;;55.20;18.70;;;;;;;2.67;100.00;101676.72;7396780;19;20431;-45
2022/01/19 08:08:51;;;;;;;67.23;24.60;;;;;;;2.74;100.00;101666.31;7404918;19;20400;-49
2022/01/19 08:11:21;;;;;;;50.70;21.10;;;;;;;2.73;100.00;101658.50;7399772;19;20490;-45
2022/01/19 08:13:53;;;;;;;40.23;15.73;;;;;;;2.67;100.00;101672.50;7401480;19;20457;-46
2022/01/19 08:16:23;;;;;;;49.00;15.23;;;;;;;2.66;100.00;101669.84;7396650;19;20479;-48
2022/01/19 08:18:53;;;;;;;61.90;24.13;;;;;;;2.70;100.00;101666.78;7402192;19;20388;-47
2022/01/19 08:21:22;;;;;;;61.77;21.57;;;;;;;2.72;100.00;101670.34;7398741;19;20422;-47
2022/01/19 08:23:52;;;;;;;73.47;23.03;;;;;;;2.72;100.00;101672.03;7402255;19;21034;-45
2022/01/19 08:26:21;;;;;;;54.13;20.40;;;;;;;2.72;100.00;101664.38;7397130;19;20458;-46
2022/01/19 08:28:53;;;;;;;81.60;31.13;;;;;;;2.73;100.00;101654.31;7401972;19;20406;-48
2022/01/19 08:31:23;;;;;;;75.77;27.00;;;;;;;2.69;100.00;101650.63;7392100;19;20498;-46
2022/01/19 08:33:53;;;;;;;62.00;25.30;;;;;;;2.69;100.00;101647.16;7401904;19;20385;-45
2022/01/19 08:36:23;;;;;;;58.73;20.70;;;;;;;2.67;100.00;101648.69;7396115;19;20781;-46
2022/01/19 08:38:53;;;;;;;76.03;27.47;;;;;;;2.71;100.00;101632.88;7399515;19;20435;-45
2022/01/19 08:41:22;;;;;;;34.70;13.30;;;;;;;2.70;100.00;101632.00;7396541;19;20418;-45
2022/01/19 08:43:54;;;;;;;78.87;29.63;;;;;;;2.75;100.00;101614.56;7402306;19;20394;-47
2022/01/19 08:46:24;;;;;;;66.30;24.73;;;;;;;2.74;100.00;101619.50;7396191;19;20423;-48
2022/01/19 08:48:53;;;;;;;51.67;20.63;;;;;;;2.72;100.00;101609.19;7405290;19;20416;-48
2022/01/19 08:51:23;;;;;;;77.47;29.57;;;;;;;2.72;100.00;101613.41;7397040;19;20936;-49
2022/01/19 08:53:52;;;;;;;71.93;26.80;;;;;;;2.71;100.00;101602.31;7401224;19;20672;-46
2022/01/19 08:56:22;;;;;;;47.90;19.40;;;;;;;2.62;100.00;101596.41;7395648;19;20427;-48
2022/01/19 08:58:54;;;;;;;71.50;27.37;;;;;;;2.64;100.00;101587.25;7400925;19;20396;-46
2022/01/19 09:01:24;;;;;;;74.67;26.20;;;;;;;2.64;100.00;101584.69;7396469;19;20438;-47
2022/01/19 09:03:54;;;;;;;74.60;26.70;;;;;;;2.68;100.00;101584.22;7400812;19;20395;-46
2022/01/19 09:06:25;;;;;;;50.03;21.43;;;;;;;2.68;100.00;101580.00;7389018;19;20752;-45
2022/01/19 09:08:55;;;;;;;44.63;16.83;;;;;;;2.65;100.00;101586.47;7400410;19;20829;-49
2022/01/19 09:11:25;;;;;;;193.43;52.20;;;;;;;2.71;100.00;101576.81;7396649;19;20407;-47
2022/01/19 09:13:57;;;;;;;228.43;67.90;;;;;;;2.82;100.00;101568.44;7404451;19;20463;-47
2022/01/19 09:16:26;;;;;;;156.40;47.63;;;;;;;2.83;100.00;101572.78;7391927;19;20889;-47
2022/01/19 09:19:01;;;;;;;84.17;30.20;;;;;;;2.77;100.00;101564.59;7400398;19;20471;-49
2022/01/19 09:21:31;;;;;;;67.00;25.07;;;;;;;2.82;100.00;101559.94;7395892;19;20415;-47
2022/01/19 09:24:01;;;;;;;71.93;21.13;;;;;;;2.80;100.00;101557.25;7400957;19;20399;-51
2022/01/19 09:26:31;;;;;;;77.37;25.10;;;;;;;2.79;100.00;101544.34;7392692;19;20870;-46
2022/01/19 09:29:03;;;;;;;111.50;36.70;;;;;;;2.83;100.00;101547.28;7400382;19;20391;-49
2022/01/19 09:31:36;;;;;;;104.07;38.30;;;;;;;2.91;100.00;101537.75;7394764;19;20429;-47
2022/01/19 09:34:14;;;;;;;45.33;15.37;;;;;;;2.92;100.00;101541.22;7400022;19;20387;-46
2022/01/19 09:36:47;;;;;;;87.67;27.77;;;;;;;2.91;100.00;101534.28;7394893;19;20503;-45
2022/01/19 09:39:19;;;;;;;76.97;26.73;;;;;;;2.97;100.00;101530.63;7399910;19;20392;-50
2022/01/19 09:41:49;;;;;;;114.50;36.07;;;;;;;3.08;100.00;101530.66;7393365;19;20421;-51
2022/01/19 09:44:22;;;;;;;65.03;23.57;;;;;;;2.96;100.00;101527.94;7402401;19;20426;-51
2022/01/19 09:46:52;;;;;;;97.40;34.00;;;;;;;3.00;100.00;101522.34;7394457;19;20427;-46
2022/01/19 09:49:23;;;;;;;50.90;18.20;;;;;;;2.97;100.00;101514.41;7399113;19;20849;-47
2022/01/19 09:51:55;;;;;;;65.27;24.57;;;;;;;2.97;100.00;101514.41;7394897;19;20492;-49
2022/01/19 09:54:27;;;;;;;40.47;15.73;;;;;;;2.90;100.00;101513.03;7399520;19;20380;-45
2022/01/19 09:56:57;;;;;;;63.70;23.57;;;;;;;2.96;100.00;101507.53;7396527;19;20457;-48
2022/01/19 09:59:29;;;;;;;55.03;21.70;;;;;;;2.95;100.00;101503.22;7401075;19;20388;-45
2022/01/19 10:02:01;;;;;;;58.80;19.37;;;;;;;2.98;100.00;101500.94;7392451;19;20487;-48
2022/01/19 10:04:32;;;;;;;70.63;24.13;;;;;;;3.07;100.00;101504.25;7398696;19;20393;-47
2022/01/19 10:07:12;;;;;;;53.20;19.57;;;;;;;2.98;100.00;101498.38;7397209;19;20507;-48
2022/01/19 10:09:53;;;;;;;46.50;17.57;;;;;;;2.99;100.00;101495.06;7398600;19;20386;-48
2022/01/19 10:17:57;;;;;;;58.37;20.60;;;;;;;3.00;100.00;101486.66;7396547;19;20753;-50
2022/01/19 10:20:27;;;;;;;38.07;15.83;;;;;;;2.97;100.00;101477.09;7392642;19;20394;-47
2022/01/19 10:22:57;;;;;;;62.40;22.33;;;;;;;3.01;100.00;101467.13;7398542;19;20412;-50
2022/01/19 10:25:27;;;;;;;66.60;25.40;;;;;;;3.07;100.00;101460.00;7392004;19;20415;-45
2022/01/19 10:27:56;;;;;;;57.63;20.83;;;;;;;3.00;100.00;101452.59;7397951;19;20400;-50
2022/01/19 10:30:28;;;;;;;60.67;23.33;;;;;;;3.03;100.00;101448.66;7393399;19;20451;-52
2022/01/19 10:33:02;;;;;;;35.17;13.70;;;;;;;2.95;100.00;101440.38;7397981;19;20420;-46
2022/01/19 10:35:36;;;;;;;41.60;19.60;;;;;;;3.02;100.00;101436.66;7395310;19;20733;-46
2022/01/19 10:38:14;;;;;;;41.10;15.33;;;;;;;2.97;100.00;101430.28;7404023;19;20451;-45
2022/01/19 10:40:47;;;;;;;36.20;16.07;;;;;;;2.95;100.00;101442.94;7401507;19;20483;-51
2022/01/19 10:43:35;;;;;;;52.40;15.10;;;;;;;2.97;100.00;101435.38;7405454;19;20443;-46
2022/01/19 10:46:27;;;;;;;49.90;17.63;;;;;;;2.91;100.00;101422.13;7399518;19;20422;-45
2022/01/19 10:49:02;;;;;;;40.13;13.47;;;;;;;2.95;100.00;101425.09;7405696;19;20465;-48
2022/01/19 10:51:36;;;;;;;42.60;16.60;;;;;;;3.01;100.00;101427.25;7400201;19;20486;-47
2022/01/19 10:54:12;;;;;;;35.20;14.70;;;;;;;2.98;100.00;101427.00;7408229;19;20411;-48
2022/01/19 10:56:42;;;;;;;33.30;11.80;;;;;;;2.96;100.00;101415.75;7397974;19;20762;-45
2022/01/19 10:59:15;;;;;;;31.17;10.13;;;;;;;2.96;100.00;101410.66;7405533;19;20207;-44
2022/01/19 11:01:50;;;;;;;35.57;15.17;;;;;;;2.91;100.00;101404.28;7400546;19;20424;-50
2022/01/19 11:04:21;;;;;;;54.07;20.97;;;;;;;2.99;100.00;101395.63;7405404;19;20811;-48
2022/01/19 11:06:52;;;;;;;56.03;22.70;;;;;;;2.91;100.00;101382.25;7399227;19;20446;-49
2022/01/19 11:09:24;;;;;;;59.20;23.67;;;;;;;2.89;100.00;101377.78;7404981;19;20447;-48
2022/01/19 11:11:55;;;;;;;69.00;27.07;;;;;;;2.91;100.00;101376.25;7400021;19;20923;-53
2022/01/19 11:14:26;;;;;;;39.73;16.37;;;;;;;2.88;100.00;101369.25;7404621;19;20659;-51
2022/01/19 11:16:58;;;;;;;50.47;20.97;;;;;;;2.79;100.00;101371.94;7401226;19;20899;-47
2022/01/19 11:19:28;;;;;;;45.97;16.87;;;;;;;2.79;100.00;101374.50;7403359;19;20429;-49
2022/01/19 11:22:18;;;;;;;44.63;17.80;;;;;;;2.78;100.00;101354.84;7396515;19;20902;-48
2022/01/19 11:24:57;;;;;;;62.80;26.37;;;;;;;2.77;100.00;101342.88;7398835;19;20418;-46
2022/01/19 11:27:28;;;;;;;46.80;16.80;;;;;;;2.75;100.00;101331.66;7397180;19;20415;-46
2022/01/19 11:30:16;;;;;;;78.53;26.40;;;;;;;2.75;100.00;101325.66;7401290;19;20387;-47
2022/01/19 11:33:12;;;;;;;53.77;16.97;;;;;;;2.62;100.00;101311.03;7400991;19;20507;-47
2022/01/19 11:35:47;;;;;;;62.07;23.90;;;;;;;2.61;100.00;101302.47;7394762;19;20418;-45
2022/01/19 11:38:40;;;;;;;69.53;23.43;;;;;;;2.59;100.00;101295.47;7399630;19;20379;-49
2022/01/19 11:41:39;;;;;;;80.20;26.20;;;;;;;2.58;100.00;101292.06;7397075;19;20416;-50
2022/01/19 11:44:09;;;;;;;66.27;24.77;;;;;;;2.53;100.00;101291.69;7400610;19;20402;-47
2022/01/19 11:46:43;;;;;;;39.40;14.97;;;;;;;2.51;100.00;101283.00;7393225;19;20689;-46
2022/01/19 11:49:14;;;;;;;51.50;20.43;;;;;;;2.48;100.00;101272.56;7399939;19;20407;-45
2022/01/19 11:51:48;;;;;;;75.43;28.77;;;;;;;2.47;100.00;101264.78;7395775;19;20419;-47
2022/01/19 11:54:21;;;;;;;27.20;12.87;;;;;;;2.40;100.00;101264.28;7400270;19;20402;-49
2022/01/19 11:57:15;;;;;;;76.60;27.63;;;;;;;2.32;100.00;101246.56;7394694;19;20498;-50
2022/01/19 12:00:21;;;;;;;60.03;20.63;;;;;;;2.19;100.00;101229.41;7399640;19;20409;-47
2022/01/19 12:02:53;;;;;;;61.53;21.87;;;;;;;2.21;100.00;101221.09;7404425;19;20435;-48
2022/01/19 12:05:43;;;;;;;59.65;20.50;;;;;;;2.20;100.00;101221.00;7395303;19;20439;-45
2022/01/19 12:08:30;;;;;;;61.67;22.83;;;;;;;2.18;100.00;101225.97;7404601;19;20127;-44
2022/01/19 12:11:12;;;;;;;70.43;30.45;;;;;;;2.22;100.00;101205.09;7399158;19;20418;-45
2022/01/19 12:19:23;;;;;;;54.57;20.50;;;;;;;2.15;100.00;101184.94;7400546;19;20448;-45
2022/01/19 12:21:58;;;;;;;46.55;15.98;;;;;;;2.12;100.00;101189.81;7397864;19;20507;-45
2022/01/19 12:24:41;;;;;;;53.55;21.98;;;;;;;2.17;100.00;101178.34;7401320;19;20123;-46
2022/01/19 12:27:24;;;;;;;47.00;15.50;;;;;;;2.11;100.00;101167.66;7397610;19;20190;-45
2022/01/19 12:30:02;;;;;;;56.83;21.47;;;;;;;2.15;100.00;101168.03;7401736;19;20126;-45
2022/01/19 12:32:38;;;;;;;48.83;15.40;;;;;;;2.06;100.00;101156.19;7397871;19;20425;-46
2022/01/19 12:35:35;;;;;;;80.13;31.25;;;;;;;2.07;100.00;101150.34;7400315;19;20454;-45
2022/01/19 12:38:09;;;;;;;47.45;17.95;;;;;;;2.08;100.00;101141.94;7399236;19;20179;-45
2022/01/19 12:40:47;;;;;;;64.80;25.33;;;;;;;2.11;100.00;101142.19;7397486;19;20241;-47
2022/01/19 12:43:31;;;;;;;56.40;24.40;;;;;;;2.13;100.00;101125.38;7401824;19;20122;-47
2022/01/19 12:46:02;;;;;;;72.72;27.25;;;;;;;2.13;100.00;101123.75;7396003;19;20415;-45
2022/01/19 12:48:47;;;;;;;64.88;23.02;;;;;;;2.11;100.00;101111.66;7401583;19;20126;-46